Time;durP1;ratioP1;P1;durP2;ratioP2;P2;SDS_P1;SDS_P2;PMS_P1;PMS_P2;Temp;Humidity;BMP_temperature;BMP_pressure;BME280_temperature;BME280_humidity;BME280_pressure;Samples;Min_cycle;Max_cycle;Signal;HPM_P1;HPM_P2
2023/12/05 00:01:12;;;;;;;40.10;19.73;;;0.30;99.90;;;;;;4995653;28;20505;-86
2023/12/05 00:03:37;;;;;;;44.22;19.55;;;0.30;99.90;;;;;;4979049;28;20041;-86
2023/12/05 00:06:07;;;;;;;46.88;21.58;;;0.20;99.90;;;;;;4978353;28;20034;-86
2023/12/05 00:08:33;;;;;;;42.92;20.15;;;0.20;99.90;;;;;;4977745;28;20081;-87
2023/12/05 00:11:05;;;;;;;48.55;22.00;;;0.30;99.90;;;;;;4978190;28;20030;-85
2023/12/05 00:13:31;;;;;;;46.17;20.52;;;0.30;99.90;;;;;;4996082;28;20483;-86
2023/12/05 00:15:57;;;;;;;43.13;19.95;;;0.30;99.90;;;;;;4994867;28;20033;-85
2023/12/05 00:18:22;;;;;;;43.10;19.77;;;0.30;99.90;;;;;;4979004;28;20030;-86
2023/12/05 00:20:48;;;;;;;43.83;20.85;;;0.30;99.90;;;;;;4978349;28;20034;-86
2023/12/05 00:23:14;;;;;;;49.63;20.13;;;0.30;99.90;;;;;;4994268;28;20027;-86
2023/12/05 00:25:40;;;;;;;48.97;20.38;;;0.30;99.90;;;;;;4978574;28;20126;-86
2023/12/05 00:28:05;;;;;;;46.50;21.60;;;0.30;99.90;;;;;;4994732;28;20121;-86
2023/12/05 00:30:31;;;;;;;46.15;21.00;;;0.30;99.90;;;;;;4994803;28;20038;-86
2023/12/05 00:32:56;;;;;;;46.47;22.73;;;0.30;99.90;;;;;;4995986;28;20038;-86
2023/12/05 00:35:22;;;;;;;55.72;21.58;;;0.30;99.90;;;;;;4994669;28;20080;-86
2023/12/05 00:37:48;;;;;;;51.65;22.08;;;0.30;99.90;;;;;;4978269;28;20064;-86
2023/12/05 00:40:13;;;;;;;45.10;20.98;;;0.30;99.90;;;;;;4993745;28;20088;-86
2023/12/05 00:42:39;;;;;;;51.60;24.05;;;0.30;99.90;;;;;;4994462;28;20092;-86
2023/12/05 00:45:05;;;;;;;51.90;24.70;;;0.30;99.90;;;;;;4977620;28;20478;-86
2023/12/05 00:47:31;;;;;;;59.03;26.30;;;0.30;99.90;;;;;;4993805;28;20038;-86
2023/12/05 00:49:56;;;;;;;46.70;22.10;;;0.30;99.90;;;;;;4994746;28;20041;-86
2023/12/05 00:52:22;;;;;;;67.50;25.73;;;0.30;99.90;;;;;;4994369;28;20038;-86
2023/12/05 00:54:48;;;;;;;80.85;33.70;;;0.40;99.90;;;;;;4978084;28;20664;-86
2023/12/05 00:57:13;;;;;;;67.95;26.60;;;0.30;99.90;;;;;;4978227;28;20031;-86
2023/12/05 00:59:39;;;;;;;47.42;23.25;;;0.30;99.90;;;;;;4977862;28;20036;-86
2023/12/05 01:02:05;;;;;;;50.60;22.45;;;0.30;99.90;;;;;;4977672;28;20434;-87
2023/12/05 01:04:30;;;;;;;53.40;23.38;;;0.30;99.90;;;;;;4993799;28;20034;-86
2023/12/05 01:06:56;;;;;;;44.53;21.45;;;0.30;99.90;;;;;;4993953;28;20077;-87
2023/12/05 01:09:22;;;;;;;50.33;23.73;;;0.40;99.90;;;;;;4977687;28;20042;-86
2023/12/05 01:11:47;;;;;;;54.00;24.63;;;0.40;99.90;;;;;;4993655;28;20023;-86
2023/12/05 01:14:13;;;;;;;55.78;24.77;;;0.30;99.90;;;;;;4993204;28;20073;-86
2023/12/05 01:16:45;;;;;;;49.67;23.52;;;0.40;99.90;;;;;;4977206;28;20485;-86
2023/12/05 01:19:11;;;;;;;51.50;23.83;;;0.30;99.90;;;;;;4993121;28;20046;-86
2023/12/05 01:21:36;;;;;;;55.95;24.55;;;0.40;99.90;;;;;;4980493;28;20030;-86
2023/12/05 01:24:02;;;;;;;54.00;23.35;;;0.40;99.90;;;;;;4995772;28;20031;-87
2023/12/05 01:26:28;;;;;;;50.10;23.45;;;0.40;99.90;;;;;;4977124;28;20026;-87
2023/12/05 01:28:54;;;;;;;56.08;24.83;;;0.40;99.90;;;;;;4976835;28;20034;-87
2023/12/05 01:31:20;;;;;;;50.80;24.42;;;0.40;99.90;;;;;;4993300;28;20105;-87
2023/12/05 01:33:46;;;;;;;61.42;25.20;;;0.40;99.90;;;;;;4977303;28;20466;-87
2023/12/05 01:36:12;;;;;;;55.50;25.27;;;0.40;99.90;;;;;;4977061;28;20045;-87
2023/12/05 01:38:39;;;;;;;61.20;26.52;;;0.40;99.90;;;;;;4993511;28;20394;-87
2023/12/05 01:41:07;;;;;;;54.45;25.27;;;0.40;99.90;;;;;;4993741;28;20030;-87
2023/12/05 01:43:32;;;;;;;52.00;25.92;;;0.40;99.90;;;;;;4976878;28;20038;-87
2023/12/05 01:46:20;;;;;;;59.75;26.88;;;0.40;99.90;;;;;;4977361;28;20040;-87
2023/12/05 01:48:47;;;;;;;57.72;27.33;;;0.40;99.90;;;;;;4993787;28;20890;-87
2023/12/05 01:51:13;;;;;;;59.13;26.35;;;0.40;99.90;;;;;;4993298;28;20034;-87
2023/12/05 01:53:41;;;;;;;66.72;28.05;;;0.40;99.90;;;;;;4992616;28;20026;-87
2023/12/05 01:56:09;;;;;;;62.35;27.65;;;0.40;99.90;;;;;;4977034;28;20386;-87
2023/12/05 01:58:37;;;;;;;72.53;28.35;;;0.40;99.90;;;;;;4993335;28;20034;-87
2023/12/05 02:01:04;;;;;;;64.47;28.10;;;0.40;99.90;;;;;;4993460;28;20562;-87
2023/12/05 02:03:31;;;;;;;63.08;28.33;;;0.40;99.90;;;;;;4977166;28;20073;-87
2023/12/05 02:05:57;;;;;;;59.20;27.15;;;0.40;99.90;;;;;;4994703;28;20034;-87
2023/12/05 02:08:26;;;;;;;62.72;26.17;;;0.40;99.90;;;;;;4977081;28;20031;-87
2023/12/05 02:10:52;;;;;;;65.63;28.08;;;0.40;99.90;;;;;;4992552;28;20080;-87
2023/12/05 02:13:18;;;;;;;63.55;28.25;;;0.40;99.90;;;;;;4992707;28;20120;-87
2023/12/05 02:15:46;;;;;;;63.67;29.30;;;0.50;99.90;;;;;;4992708;28;20031;-88
2023/12/05 02:18:20;;;;;;;68.45;29.85;;;0.40;99.90;;;;;;4993791;28;20042;-87
2023/12/05 02:21:02;;;;;;;62.85;28.52;;;0.40;99.90;;;;;;4992733;28;20445;-86
2023/12/05 02:23:58;;;;;;;71.55;29.70;;;0.40;99.90;;;;;;4976272;28;20030;-88
2023/12/05 02:26:42;;;;;;;66.40;29.27;;;0.50;99.90;;;;;;4976056;28;20038;-87
2023/12/05 02:29:08;;;;;;;70.97;29.98;;;0.50;99.90;;;;;;4976365;28;20041;-87
2023/12/05 02:31:34;;;;;;;78.07;32.40;;;0.50;99.90;;;;;;4995972;28;20474;-87
2023/12/05 02:33:59;;;;;;;74.22;32.63;;;0.50;99.90;;;;;;4996520;28;20022;-88
2023/12/05 02:36:43;;;;;;;75.97;32.38;;;0.50;99.90;;;;;;4980400;28;20061;-87
2023/12/05 02:39:26;;;;;;;69.90;31.00;;;0.40;99.90;;;;;;4980762;28;20034;-87
2023/12/05 02:41:54;;;;;;;79.07;29.75;;;0.50;99.90;;;;;;4996329;28;20128;-87
2023/12/05 02:44:24;;;;;;;74.70;32.03;;;0.50;99.90;;;;;;4980159;28;20394;-87
2023/12/05 02:46:50;;;;;;;79.10;31.35;;;0.50;99.90;;;;;;4980288;28;20034;-87
2023/12/05 02:49:17;;;;;;;69.53;30.58;;;0.50;99.90;;;;;;4996319;28;20061;-88
2023/12/05 02:51:43;;;;;;;69.78;31.10;;;0.50;99.90;;;;;;4996072;28;20086;-87
2023/12/05 02:54:08;;;;;;;71.78;31.63;;;0.50;99.90;;;;;;4995634;28;20521;-87
2023/12/05 02:56:35;;;;;;;71.07;31.48;;;0.50;99.90;;;;;;4981239;28;20050;-87
2023/12/05 02:59:04;;;;;;;71.22;32.35;;;0.50;99.90;;;;;;4980269;28;20041;-87
2023/12/05 03:01:37;;;;;;;74.95;32.55;;;0.50;99.90;;;;;;4980152;28;20121;-88
2023/12/05 03:04:02;;;;;;;79.90;32.67;;;0.50;99.90;;;;;;4979599;28;20045;-87
2023/12/05 03:06:28;;;;;;;74.00;31.58;;;0.50;99.90;;;;;;4995780;28;20030;-87
2023/12/05 03:08:54;;;;;;;76.85;31.00;;;0.50;99.90;;;;;;4996268;28;20389;-87
2023/12/05 03:11:19;;;;;;;75.35;29.75;;;0.50;99.90;;;;;;4985429;28;20458;-87
2023/12/05 03:13:45;;;;;;;73.05;31.48;;;0.60;99.90;;;;;;5001132;28;20469;-87
2023/12/05 03:16:11;;;;;;;77.28;31.17;;;0.60;99.90;;;;;;4979671;28;20070;-87
2023/12/05 03:18:36;;;;;;;68.28;30.58;;;0.60;99.90;;;;;;4979740;28;20089;-87
2023/12/05 03:21:02;;;;;;;76.90;33.53;;;0.60;99.90;;;;;;4979657;28;20628;-88
2023/12/05 03:23:28;;;;;;;74.57;30.88;;;0.60;99.90;;;;;;4979814;28;20502;-87
2023/12/05 03:25:53;;;;;;;72.00;30.23;;;0.50;99.90;;;;;;4995429;28;20041;-87
2023/12/05 03:28:19;;;;;;;70.30;31.40;;;0.50;99.90;;;;;;4979349;28;20026;-87
2023/12/05 03:30:44;;;;;;;83.35;33.17;;;0.50;99.90;;;;;;4979499;28;20038;-87
2023/12/05 03:33:10;;;;;;;82.82;33.30;;;0.60;99.90;;;;;;4995288;28;20046;-87
2023/12/05 03:35:36;;;;;;;85.20;33.58;;;0.50;99.90;;;;;;4995041;28;20030;-88
2023/12/05 03:38:01;;;;;;;79.13;32.65;;;0.50;99.90;;;;;;4995509;28;20030;-87
2023/12/05 03:40:30;;;;;;;86.40;33.83;;;0.60;99.90;;;;;;4995734;28;20034;-87
2023/12/05 03:42:58;;;;;;;77.28;34.03;;;0.60;99.90;;;;;;4994811;28;20120;-87
2023/12/05 03:45:25;;;;;;;75.00;31.45;;;0.60;99.90;;;;;;4978334;28;20038;-87
2023/12/05 03:47:51;;;;;;;82.13;33.78;;;0.60;99.90;;;;;;4994496;28;20042;-87
2023/12/05 03:50:16;;;;;;;81.22;33.17;;;0.60;99.90;;;;;;4978084;28;20026;-86
2023/12/05 03:52:42;;;;;;;80.80;33.10;;;0.60;99.90;;;;;;4978358;28;20030;-87
2023/12/05 03:55:08;;;;;;;80.90;33.42;;;0.60;99.90;;;;;;4978262;28;20070;-87
2023/12/05 03:57:33;;;;;;;78.95;33.45;;;0.60;99.90;;;;;;4977813;28;20034;-87
2023/12/05 03:59:59;;;;;;;78.75;33.80;;;0.60;99.90;;;;;;4993806;28;20038;-87
2023/12/05 04:02:25;;;;;;;79.18;32.40;;;0.60;99.90;;;;;;4977400;28;20066;-87
2023/12/05 04:04:50;;;;;;;79.22;31.95;;;0.70;99.90;;;;;;4977615;28;20034;-87
2023/12/05 04:07:16;;;;;;;80.28;33.00;;;0.70;99.90;;;;;;4994378;28;20030;-87
2023/12/05 04:09:42;;;;;;;74.35;31.27;;;0.70;99.90;;;;;;4993858;28;20448;-87
2023/12/05 04:12:07;;;;;;;74.85;30.85;;;0.70;99.90;;;;;;4995280;28;20030;-87
2023/12/05 04:14:33;;;;;;;73.97;32.75;;;0.70;99.90;;;;;;4994343;28;20041;-87
2023/12/05 04:16:59;;;;;;;81.30;32.08;;;0.80;99.90;;;;;;4993717;28;20077;-87
2023/12/05 04:19:25;;;;;;;79.95;33.42;;;0.80;99.90;;;;;;4993658;28;20038;-87
2023/12/05 04:21:50;;;;;;;84.38;33.05;;;0.70;99.90;;;;;;4995422;28;20448;-87
2023/12/05 04:24:16;;;;;;;81.88;32.10;;;0.70;99.90;;;;;;4977513;28;20038;-87
2023/12/05 04:26:41;;;;;;;78.88;32.67;;;0.70;99.90;;;;;;4977946;28;20780;-88
2023/12/05 04:29:07;;;;;;;79.53;32.80;;;0.80;99.90;;;;;;4977749;28;20097;-87
2023/12/05 04:31:33;;;;;;;82.38;33.70;;;0.80;99.90;;;;;;4994303;28;20363;-87
2023/12/05 04:33:58;;;;;;;91.07;33.72;;;0.80;99.90;;;;;;4994059;28;20126;-87
2023/12/05 04:36:24;;;;;;;86.30;32.85;;;0.80;99.90;;;;;;4978141;28;20026;-88
2023/12/05 04:38:50;;;;;;;90.85;34.55;;;0.80;99.90;;;;;;4995322;28;20050;-88
2023/12/05 04:41:15;;;;;;;84.43;33.17;;;0.80;99.90;;;;;;4994198;28;20517;-88
2023/12/05 04:43:41;;;;;;;86.60;32.30;;;0.80;99.90;;;;;;4978193;28;20035;-88
2023/12/05 04:46:07;;;;;;;80.43;30.85;;;0.80;99.90;;;;;;4995514;28;20038;-88
2023/12/05 04:48:32;;;;;;;74.65;30.10;;;0.90;99.90;;;;;;4978046;28;20050;-88
2023/12/05 04:50:58;;;;;;;72.65;29.23;;;0.90;99.90;;;;;;4993987;28;20386;-88
2023/12/05 04:53:24;;;;;;;71.95;28.83;;;0.90;99.90;;;;;;4976542;28;20743;-88
2023/12/05 04:55:49;;;;;;;78.65;29.63;;;1.00;99.90;;;;;;4977877;28;20126;-88
2023/12/05 04:58:15;;;;;;;73.78;29.60;;;1.00;99.90;;;;;;4977960;28;20466;-87
2023/12/05 05:00:41;;;;;;;74.90;29.23;;;1.00;99.90;;;;;;4977755;28;20038;-87
2023/12/05 05:03:07;;;;;;;72.10;28.75;;;1.00;99.90;;;;;;4993505;28;20022;-87
2023/12/05 05:05:33;;;;;;;104.55;40.25;;;1.00;99.90;;;;;;4994301;28;20035;-87
2023/12/05 05:07:59;;;;;;;126.35;45.00;;;1.00;99.90;;;;;;4993650;28;20080;-87
2023/12/05 05:10:24;;;;;;;116.10;43.38;;;1.00;99.90;;;;;;4976874;28;20038;-87
2023/12/05 05:12:50;;;;;;;73.07;30.08;;;1.00;99.90;;;;;;4994826;28;20394;-87
2023/12/05 05:15:16;;;;;;;77.60;30.35;;;1.00;99.90;;;;;;4977340;28;20034;-87
2023/12/05 05:17:41;;;;;;;96.07;34.63;;;1.00;99.90;;;;;;4977446;28;20086;-86
2023/12/05 05:20:07;;;;;;;97.93;33.42;;;1.00;99.90;;;;;;4993359;28;20042;-86
2023/12/05 05:22:33;;;;;;;81.10;30.58;;;1.00;99.90;;;;;;4977214;28;20032;-87
2023/12/05 05:24:59;;;;;;;83.50;32.35;;;1.00;99.90;;;;;;4993479;28;20034;-86
2023/12/05 05:27:25;;;;;;;89.18;33.42;;;1.00;99.90;;;;;;4993973;28;20030;-86
2023/12/05 05:29:50;;;;;;;86.32;31.88;;;0.90;99.90;;;;;;4993743;28;20637;-86
2023/12/05 05:32:16;;;;;;;84.22;32.50;;;0.90;99.90;;;;;;4992769;28;20030;-86
2023/12/05 05:34:41;;;;;;;98.78;38.42;;;1.00;99.90;;;;;;4976627;28;20086;-86
2023/12/05 05:37:07;;;;;;;86.45;31.45;;;1.00;99.90;;;;;;4992753;28;20105;-85
2023/12/05 05:39:33;;;;;;;87.10;32.25;;;1.00;99.90;;;;;;4992614;28;20109;-86
2023/12/05 05:41:58;;;;;;;104.68;33.78;;;1.00;99.90;;;;;;4976829;28;20505;-85
2023/12/05 05:44:24;;;;;;;96.07;33.20;;;1.00;99.90;;;;;;4992356;28;20041;-85
2023/12/05 05:46:50;;;;;;;95.43;33.75;;;0.90;99.90;;;;;;4976587;28;20031;-85
2023/12/05 05:49:15;;;;;;;82.30;30.25;;;1.00;99.90;;;;;;4994138;28;20030;-85
2023/12/05 05:51:41;;;;;;;64.82;24.27;;;1.00;99.90;;;;;;4992554;28;20085;-85
2023/12/05 05:54:06;;;;;;;58.13;22.67;;;1.20;99.90;;;;;;4992091;28;20065;-85
2023/12/05 05:56:39;;;;;;;56.08;22.00;;;1.30;99.90;;;;;;4992074;28;20026;-85
2023/12/05 05:59:05;;;;;;;55.92;21.92;;;1.40;99.90;;;;;;4991958;28;20041;-84
2023/12/05 06:01:31;;;;;;;49.78;19.13;;;1.40;99.90;;;;;;4991794;28;20442;-85
2023/12/05 06:03:56;;;;;;;49.30;18.15;;;1.50;99.90;;;;;;4991965;28;20042;-85
2023/12/05 06:06:22;;;;;;;57.60;19.70;;;1.50;99.90;;;;;;4976010;28;20555;-85
2023/12/05 06:08:48;;;;;;;59.28;20.77;;;1.50;99.90;;;;;;4975887;28;20108;-84
2023/12/05 06:11:13;;;;;;;53.63;19.85;;;1.50;99.90;;;;;;4975621;28;20026;-85
2023/12/05 06:13:39;;;;;;;53.65;19.13;;;1.50;99.90;;;;;;4993239;28;20030;-85
2023/12/05 06:16:05;;;;;;;57.35;19.75;;;1.60;99.90;;;;;;4991728;28;20031;-85
2023/12/05 06:18:31;;;;;;;41.05;17.15;;;1.60;99.90;;;;;;4993169;28;20449;-85
2023/12/05 06:20:57;;;;;;;51.05;17.65;;;1.60;99.90;;;;;;4991776;28;20031;-85
2023/12/05 06:23:23;;;;;;;48.10;18.58;;;1.70;99.90;;;;;;4975488;28;20034;-85
2023/12/05 06:25:49;;;;;;;49.25;17.55;;;1.70;99.90;;;;;;4975452;28;20441;-85
2023/12/05 06:28:14;;;;;;;46.40;17.45;;;1.70;99.90;;;;;;4991552;28;20153;-84
2023/12/05 06:30:40;;;;;;;48.22;18.08;;;1.70;99.90;;;;;;4991480;28;20041;-85
2023/12/05 06:33:06;;;;;;;41.78;17.27;;;1.70;99.90;;;;;;4992615;28;20030;-85
2023/12/05 06:35:31;;;;;;;51.45;19.10;;;1.80;99.90;;;;;;4992854;28;20022;-85
2023/12/05 06:37:57;;;;;;;39.42;17.23;;;1.80;99.90;;;;;;4991816;28;20026;-85
2023/12/05 06:40:23;;;;;;;40.70;16.33;;;1.80;99.90;;;;;;4975861;28;20117;-85
2023/12/05 06:42:48;;;;;;;37.38;15.63;;;1.80;99.90;;;;;;4975705;28;20045;-85
2023/12/05 06:45:15;;;;;;;38.85;15.65;;;1.90;99.90;;;;;;4975592;28;20470;-85
2023/12/05 06:47:40;;;;;;;37.75;14.98;;;1.80;99.90;;;;;;4992081;28;20038;-85
2023/12/05 06:50:10;;;;;;;37.83;15.15;;;1.90;99.90;;;;;;4991264;28;20474;-85
2023/12/05 06:52:37;;;;;;;43.50;16.70;;;1.90;99.90;;;;;;4975661;28;20796;-85
2023/12/05 06:55:04;;;;;;;54.22;19.73;;;1.90;99.90;;;;;;4992628;28;20045;-86
2023/12/05 06:57:30;;;;;;;75.47;24.77;;;1.80;99.90;;;;;;4991558;28;20035;-85
2023/12/05 06:59:56;;;;;;;62.05;24.98;;;1.70;99.90;;;;;;4976427;28;20089;-85
2023/12/05 07:02:21;;;;;;;67.78;25.08;;;1.70;99.90;;;;;;4994719;28;20070;-86
2023/12/05 07:04:47;;;;;;;69.25;25.02;;;1.60;99.90;;;;;;4979702;28;20129;-83
2023/12/05 07:07:13;;;;;;;77.10;26.58;;;1.60;99.90;;;;;;4974905;28;20027;-83
2023/12/05 07:09:39;;;;;;;67.20;25.80;;;1.60;99.90;;;;;;4975121;28;20030;-83
2023/12/05 07:12:05;;;;;;;51.80;20.00;;;1.60;99.90;;;;;;4975501;28;20030;-83
2023/12/05 07:14:34;;;;;;;70.35;25.20;;;1.60;99.90;;;;;;4991023;28;20085;-84
2023/12/05 07:17:00;;;;;;;71.63;26.05;;;1.60;99.90;;;;;;4976035;28;20030;-84
2023/12/05 07:19:26;;;;;;;71.45;23.48;;;1.60;99.90;;;;;;4977293;28;20034;-83
2023/12/05 07:21:51;;;;;;;63.33;24.40;;;1.60;99.90;;;;;;4995725;28;20029;-83
2023/12/05 07:24:17;;;;;;;64.97;23.60;;;1.70;99.90;;;;;;4994694;28;20092;-83
2023/12/05 07:26:43;;;;;;;60.35;21.58;;;1.70;99.90;;;;;;5000254;28;20699;-84
2023/12/05 07:29:09;;;;;;;61.40;25.25;;;1.70;99.90;;;;;;4998937;28;20045;-84
2023/12/05 07:31:35;;;;;;;73.22;27.25;;;1.80;99.90;;;;;;4994515;28;20030;-83
2023/12/05 07:34:01;;;;;;;49.50;20.95;;;1.80;99.90;;;;;;4978339;28;20101;-84
2023/12/05 07:36:27;;;;;;;54.22;20.88;;;1.80;99.90;;;;;;4978911;28;20034;-84
2023/12/05 07:38:52;;;;;;;49.42;19.63;;;1.90;99.90;;;;;;4978827;28;20034;-84
2023/12/05 07:41:24;;;;;;;46.20;18.52;;;1.90;99.90;;;;;;4994200;28;20034;-83
2023/12/05 07:43:51;;;;;;;47.47;18.48;;;1.90;99.90;;;;;;4994677;28;20043;-84
2023/12/05 07:46:18;;;;;;;41.42;17.35;;;2.00;99.90;;;;;;4993845;28;20038;-84
2023/12/05 07:48:44;;;;;;;37.15;16.05;;;2.00;99.90;;;;;;4993768;28;20031;-84
2023/12/05 07:51:15;;;;;;;42.00;16.92;;;2.10;99.90;;;;;;4993857;28;20038;-84
2023/12/05 07:53:42;;;;;;;41.28;15.40;;;2.20;99.90;;;;;;4981800;28;20050;-83
2023/12/05 07:56:08;;;;;;;32.22;14.95;;;2.30;99.90;;;;;;4994239;28;20037;-83
2023/12/05 07:58:33;;;;;;;42.00;15.88;;;2.30;99.90;;;;;;4993983;28;20045;-83
2023/12/05 08:00:59;;;;;;;32.72;15.68;;;2.20;99.90;;;;;;4993871;28;20022;-83
2023/12/05 08:03:24;;;;;;;47.28;20.38;;;2.20;99.90;;;;;;4977522;28;20030;-84
2023/12/05 08:05:50;;;;;;;55.10;22.80;;;2.10;99.90;;;;;;4977602;28;20030;-83
2023/12/05 08:08:16;;;;;;;51.25;22.75;;;2.00;99.90;;;;;;4977510;28;20501;-83
2023/12/05 08:10:42;;;;;;;55.83;23.02;;;2.00;99.90;;;;;;4993535;28;20401;-83
2023/12/05 08:13:11;;;;;;;60.60;23.90;;;1.90;99.90;;;;;;4993579;28;20030;-83
2023/12/05 08:15:36;;;;;;;68.85;27.58;;;1.90;99.90;;;;;;4994861;28;20026;-83
2023/12/05 08:18:02;;;;;;;75.63;25.27;;;1.80;99.90;;;;;;4977188;28;20034;-83
2023/12/05 08:20:29;;;;;;;64.57;24.92;;;1.70;99.90;;;;;;4981282;28;20553;-83
2023/12/05 08:22:54;;;;;;;67.80;26.95;;;1.70;99.90;;;;;;4993736;28;20030;-84
2023/12/05 08:25:20;;;;;;;66.85;27.52;;;1.70;99.90;;;;;;4993960;28;20757;-84
2023/12/05 08:27:46;;;;;;;69.05;28.17;;;1.70;99.90;;;;;;4992604;28;20027;-84
2023/12/05 08:30:14;;;;;;;62.78;26.52;;;1.70;99.90;;;;;;4977695;28;20263;-84
2023/12/05 08:32:43;;;;;;;59.58;24.42;;;1.70;99.90;;;;;;4993423;28;20101;-84
2023/12/05 08:35:09;;;;;;;59.25;24.00;;;1.70;99.90;;;;;;4980893;28;20134;-83
2023/12/05 08:37:35;;;;;;;56.40;21.98;;;1.70;99.90;;;;;;4997643;28;20096;-83
2023/12/05 08:40:00;;;;;;;63.63;25.25;;;1.70;99.90;;;;;;4977536;28;20069;-83
2023/12/05 08:42:28;;;;;;;57.03;25.08;;;1.80;99.90;;;;;;4997760;28;20034;-83
2023/12/05 08:44:54;;;;;;;59.55;25.85;;;1.70;99.90;;;;;;4993241;28;20120;-83
2023/12/05 08:47:20;;;;;;;55.22;23.35;;;1.70;99.90;;;;;;4994680;28;20093;-83
2023/12/05 08:49:46;;;;;;;60.75;25.95;;;1.70;99.90;;;;;;4980995;28;20619;-83
2023/12/05 08:52:11;;;;;;;59.55;25.10;;;1.70;99.90;;;;;;4993161;28;20030;-83
2023/12/05 08:54:37;;;;;;;48.13;22.80;;;1.70;99.90;;;;;;4992637;28;20038;-83
2023/12/05 08:57:03;;;;;;;41.25;19.75;;;1.70;99.90;;;;;;4980912;28;20072;-83
2023/12/05 08:59:29;;;;;;;45.05;20.13;;;1.80;99.90;;;;;;4976545;28;20050;-83
2023/12/05 09:01:54;;;;;;;52.10;23.20;;;1.80;99.90;;;;;;4997170;28;20026;-83
2023/12/05 09:04:20;;;;;;;54.97;24.10;;;1.80;99.90;;;;;;4976604;28;20088;-83
2023/12/05 09:06:46;;;;;;;53.80;23.55;;;1.70;99.90;;;;;;4992753;28;20382;-83
2023/12/05 09:09:11;;;;;;;48.75;22.65;;;1.70;99.90;;;;;;4992658;28;20034;-83
2023/12/05 09:11:38;;;;;;;56.47;24.67;;;1.70;99.90;;;;;;4992092;28;20026;-83
2023/12/05 09:14:05;;;;;;;52.10;23.08;;;1.80;99.90;;;;;;4992143;28;20026;-83
2023/12/05 09:16:32;;;;;;;62.30;23.75;;;1.70;99.90;;;;;;4992710;28;20034;-82
2023/12/05 09:18:58;;;;;;;53.80;24.42;;;1.80;99.90;;;;;;4977232;28;20046;-83
2023/12/05 09:21:23;;;;;;;51.40;25.42;;;1.80;99.90;;;;;;4993324;28;20029;-83
2023/12/05 09:23:49;;;;;;;54.83;25.33;;;2.00;99.90;;;;;;4993533;28;20109;-83
2023/12/05 09:26:15;;;;;;;53.20;24.02;;;2.10;99.90;;;;;;4992083;28;20026;-83
2023/12/05 09:28:41;;;;;;;45.45;19.42;;;2.00;99.90;;;;;;4992263;28;20792;-83
2023/12/05 09:31:06;;;;;;;43.33;18.83;;;2.00;99.90;;;;;;4991918;28;20041;-83
2023/12/05 09:33:32;;;;;;;40.50;17.80;;;2.10;99.90;;;;;;4993195;28;20037;-83
2023/12/05 09:35:58;;;;;;;34.80;16.65;;;2.20;99.90;;;;;;4992305;28;20462;-83
2023/12/05 09:38:24;;;;;;;37.70;17.20;;;2.30;99.90;;;;;;4993728;28;20026;-83
2023/12/05 09:40:51;;;;;;;28.73;15.10;;;2.50;99.90;;;;;;4975760;28;20034;-83
2023/12/05 09:43:22;;;;;;;25.92;14.05;;;2.60;99.90;;;;;;4976041;28;20069;-83
2023/12/05 09:45:58;;;;;;;31.73;13.35;;;2.60;99.90;;;;;;4992785;28;20030;-83
2023/12/05 09:48:31;;;;;;;31.25;13.05;;;2.60;99.90;;;;;;4992602;28;20105;-83
2023/12/05 09:50:57;;;;;;;27.50;14.73;;;2.50;99.90;;;;;;4992584;28;20070;-83
2023/12/05 09:53:25;;;;;;;31.20;16.48;;;2.40;99.90;;;;;;4991582;28;20516;-83
2023/12/05 09:55:50;;;;;;;37.45;17.45;;;2.30;99.90;;;;;;4992134;28;20057;-83
2023/12/05 09:58:16;;;;;;;39.03;18.35;;;2.40;99.90;;;;;;4991708;28;20440;-83
2023/12/05 10:00:45;;;;;;;36.42;17.35;;;2.40;99.90;;;;;;4991707;28;20034;-83
2023/12/05 10:03:15;;;;;;;39.17;18.02;;;2.40;99.90;;;;;;4991043;28;20046;-83
2023/12/05 10:05:42;;;;;;;40.42;18.60;;;2.30;99.90;;;;;;4991262;28;20101;-83
2023/12/05 10:08:10;;;;;;;29.10;16.33;;;2.20;99.90;;;;;;4975391;28;20033;-83
2023/12/05 10:10:38;;;;;;;37.55;18.77;;;2.20;99.90;;;;;;4991389;28;20042;-83
2023/12/05 10:13:04;;;;;;;30.23;15.23;;;2.20;99.90;;;;;;4990783;28;20041;-83
2023/12/05 10:15:31;;;;;;;28.63;13.80;;;2.30;99.90;;;;;;4991323;28;20034;-83
2023/12/05 10:17:58;;;;;;;27.58;14.98;;;2.40;99.90;;;;;;4991684;28;20038;-84
2023/12/05 10:20:24;;;;;;;27.75;14.45;;;2.50;99.90;;;;;;4992419;28;20038;-83
2023/12/05 10:22:51;;;;;;;23.73;13.32;;;2.60;99.90;;;;;;4992016;28;20095;-83
2023/12/05 10:25:18;;;;;;;22.77;12.18;;;2.70;99.90;;;;;;4992071;28;20038;-83
2023/12/05 10:27:43;;;;;;;23.50;10.70;;;2.90;99.90;;;;;;4991360;28;20088;-83
2023/12/05 10:30:09;;;;;;;21.92;11.70;;;2.90;99.90;;;;;;4991463;28;20557;-83
2023/12/05 10:32:36;;;;;;;24.95;11.13;;;2.80;99.90;;;;;;4992488;28;20034;-83
2023/12/05 10:35:03;;;;;;;25.00;11.05;;;2.80;99.90;;;;;;4991165;28;20109;-83
2023/12/05 10:37:29;;;;;;;19.60;9.90;;;2.80;99.90;;;;;;4991956;28;20613;-83
2023/12/05 10:39:58;;;;;;;20.98;11.57;;;2.70;99.90;;;;;;4991448;28;20139;-83
2023/12/05 10:42:28;;;;;;;24.27;14.65;;;2.70;99.90;;;;;;4990565;28;20081;-83
2023/12/05 10:44:55;;;;;;;23.80;12.07;;;2.70;99.90;;;;;;4991854;28;20450;-83
2023/12/05 10:47:22;;;;;;;24.25;12.80;;;2.80;99.90;;;;;;4991272;28;20085;-83
2023/12/05 10:49:49;;;;;;;24.98;12.07;;;2.90;99.90;;;;;;4990408;28;20521;-83
2023/12/05 10:52:15;;;;;;;19.70;10.68;;;3.00;99.90;;;;;;4992620;28;20038;-83
2023/12/05 10:54:42;;;;;;;19.02;10.38;;;3.20;99.90;;;;;;4978262;28;20042;-83
2023/12/05 10:57:11;;;;;;;21.70;11.80;;;3.40;99.90;;;;;;4994942;28;20030;-83
2023/12/05 10:59:40;;;;;;;14.93;8.63;;;3.50;99.90;;;;;;4978401;28;20121;-83
2023/12/05 11:02:12;;;;;;;15.60;8.80;;;3.50;99.90;;;;;;4995979;28;20030;-83
2023/12/05 11:04:39;;;;;;;23.95;13.20;;;3.50;99.90;;;;;;4994798;28;20034;-83
2023/12/05 11:07:05;;;;;;;27.75;15.35;;;3.50;99.90;;;;;;4978497;28;20081;-84
2023/12/05 11:09:30;;;;;;;30.25;15.75;;;3.50;99.90;;;;;;4998719;28;20046;-83
2023/12/05 11:11:57;;;;;;;14.95;9.05;;;3.40;99.90;;;;;;4994521;28;20749;-84
2023/12/05 11:14:26;;;;;;;14.93;8.07;;;3.30;99.90;;;;;;4995007;28;20060;-83
2023/12/05 11:16:57;;;;;;;17.35;7.63;;;3.20;99.90;;;;;;4977950;28;20042;-83
2023/12/05 11:19:56;;;;;;;15.00;8.80;;;3.00;99.90;;;;;;4978771;28;20022;-83
2023/12/05 11:22:40;;;;;;;13.88;7.90;;;3.00;99.90;;;;;;4978264;28;20046;-83
2023/12/05 11:25:20;;;;;;;17.30;7.95;;;3.00;99.90;;;;;;4978157;28;20115;-83
2023/12/05 11:27:57;;;;;;;28.60;10.57;;;3.10;99.90;;;;;;4977817;28;20486;-83
2023/12/05 11:30:48;;;;;;;18.05;8.52;;;3.00;99.90;;;;;;4977948;28;20101;-83
2023/12/05 11:33:47;;;;;;;18.92;10.48;;;3.10;99.90;;;;;;4977181;28;20210;-83
2023/12/05 11:36:34;;;;;;;15.00;8.18;;;3.10;99.90;;;;;;4994017;28;20034;-83
2023/12/05 11:39:03;;;;;;;16.35;8.95;;;3.20;99.90;;;;;;4994281;28;20034;-83
2023/12/05 11:41:29;;;;;;;16.33;9.07;;;3.10;99.90;;;;;;4994699;28;20026;-83
2023/12/05 11:44:21;;;;;;;18.77;9.75;;;3.10;99.90;;;;;;4978242;28;20406;-84
2023/12/05 11:46:47;;;;;;;23.17;12.07;;;3.10;99.90;;;;;;4991173;28;20047;-83
2023/12/05 11:49:50;;;;;;;30.83;11.70;;;3.10;99.90;;;;;;4994324;28;20057;-83
2023/12/05 11:52:18;;;;;;;12.25;7.25;;;3.30;99.90;;;;;;4922288;29;20852;-84
2023/12/05 11:54:45;;;;;;;15.32;8.02;;;3.30;99.90;;;;;;4999366;28;20065;-84
2023/12/05 11:57:11;;;;;;;22.45;11.95;;;3.60;99.90;;;;;;4995370;28;20027;-84
2023/12/05 11:59:41;;;;;;;28.80;11.15;;;3.70;99.90;;;;;;4994146;28;20096;-84
2023/12/05 12:02:10;;;;;;;25.88;12.00;;;3.70;99.90;;;;;;4977428;28;20034;-84
2023/12/05 12:04:37;;;;;;;26.85;12.43;;;3.80;99.90;;;;;;4994134;28;20046;-84
2023/12/05 12:07:03;;;;;;;18.98;8.13;;;3.90;99.90;;;;;;4977741;28;20030;-84
2023/12/05 12:09:29;;;;;;;15.10;7.90;;;3.80;99.90;;;;;;4993632;28;20034;-83
2023/12/05 12:11:56;;;;;;;14.60;5.25;;;3.80;99.90;;;;;;4993395;28;20161;-84
2023/12/05 12:14:23;;;;;;;15.95;5.72;;;3.80;99.90;;;;;;4976615;28;20406;-84
2023/12/05 12:17:14;;;;;;;18.02;6.53;;;3.80;99.90;;;;;;4994642;28;20132;-84
2023/12/05 12:19:40;;;;;;;9.07;5.00;;;3.70;99.90;;;;;;4992870;28;20034;-84
2023/12/05 12:22:12;;;;;;;11.57;4.88;;;3.70;99.90;;;;;;4993384;28;20034;-85
2023/12/05 12:24:39;;;;;;;11.38;4.25;;;3.80;99.90;;;;;;4992932;28;20077;-85
2023/12/05 12:27:07;;;;;;;10.45;4.57;;;3.80;99.90;;;;;;4995021;28;20034;-85
2023/12/05 12:33:57;;;;;;;11.80;4.72;;;3.90;99.90;;;;;;4994768;28;20413;-84
2023/12/05 12:36:23;;;;;;;11.85;4.90;;;3.80;99.90;;;;;;4977203;28;20093;-84
2023/12/05 12:39:01;;;;;;;8.60;4.05;;;3.70;99.90;;;;;;4980299;28;20091;-84
2023/12/05 12:41:27;;;;;;;12.77;4.90;;;3.60;99.90;;;;;;4993360;28;20038;-84
2023/12/05 12:43:53;;;;;;;9.13;3.72;;;3.50;99.90;;;;;;4993195;28;20023;-84